createdAt,value
2022-11-24T00:01:07.443Z,6.03
2022-11-24T00:03:34.393Z,8.93
2022-11-24T00:06:08.608Z,6.63
2022-11-24T00:08:35.932Z,6.65
2022-11-24T00:11:11.368Z,7.43
2022-11-24T00:13:39.248Z,10.55
2022-11-24T00:16:11.066Z,6.45
2022-11-24T00:18:38.963Z,10.05
2022-11-24T00:21:06.044Z,8.02
2022-11-24T00:23:33.407Z,10.02
2022-11-24T00:26:07.041Z,8.75
2022-11-24T00:28:34.256Z,9.60
2022-11-24T00:31:01.695Z,14.85
2022-11-24T00:33:28.757Z,10.40
2022-11-24T00:35:59.792Z,11.55
2022-11-24T00:38:26.905Z,10.50
2022-11-24T00:40:53.773Z,11.10
2022-11-24T00:43:20.767Z,9.23
2022-11-24T00:45:48.161Z,8.70
2022-11-24T00:48:15.177Z,11.38
2022-11-24T00:50:42.236Z,13.18
2022-11-24T00:53:09.217Z,14.48
2022-11-24T00:55:36.126Z,13.10
2022-11-24T00:58:03.315Z,15.10
2022-11-24T01:00:30.249Z,8.25
2022-11-24T01:02:57.226Z,11.52
2022-11-24T01:05:26.234Z,12.40
2022-11-24T01:07:53.388Z,9.85
2022-11-24T01:10:20.485Z,9.93
2022-11-24T01:12:47.866Z,10.45
2022-11-24T01:15:14.757Z,11.90
2022-11-24T01:17:41.604Z,12.90
2022-11-24T01:20:09.101Z,11.23
2022-11-24T01:22:36.030Z,13.00
2022-11-24T01:25:03.029Z,9.77
2022-11-24T01:27:30.238Z,10.30
2022-11-24T01:29:57.374Z,9.00
2022-11-24T01:32:24.367Z,9.68
2022-11-24T01:34:51.439Z,8.75
2022-11-24T01:37:18.388Z,8.40
2022-11-24T01:39:45.261Z,14.35
2022-11-24T01:42:12.616Z,10.13
2022-11-24T01:44:41.023Z,9.02
2022-11-24T01:47:14.025Z,12.30
2022-11-24T01:49:48.808Z,9.07
2022-11-24T01:52:16.451Z,10.43
2022-11-24T01:54:48.525Z,9.30
2022-11-24T01:57:21.071Z,9.68
2022-11-24T01:59:48.333Z,9.35
2022-11-24T02:02:19.199Z,9.15
2022-11-24T02:04:46.292Z,10.82
2022-11-24T02:07:13.222Z,7.78
2022-11-24T02:09:49.056Z,6.45
2022-11-24T02:12:16.010Z,8.90
2022-11-24T02:14:43.217Z,9.63
2022-11-24T02:17:10.386Z,9.57
2022-11-24T02:19:40.390Z,7.75
2022-11-24T02:22:41.591Z,8.75
2022-11-24T02:25:27.954Z,5.75
2022-11-24T02:27:55.374Z,8.60
2022-11-24T02:30:22.630Z,7.15
2022-11-24T02:32:49.531Z,13.27
2022-11-24T02:35:16.548Z,8.90
2022-11-24T02:37:43.469Z,8.40
2022-11-24T02:40:10.784Z,8.23
2022-11-24T02:42:39.989Z,11.40
2022-11-24T02:45:07.289Z,10.73
2022-11-24T02:47:34.181Z,11.82
2022-11-24T02:50:01.022Z,9.75
2022-11-24T02:52:27.857Z,9.30
2022-11-24T02:54:54.678Z,12.00
2022-11-24T02:57:22.822Z,11.27
2022-11-24T02:59:49.739Z,9.80
2022-11-24T03:02:16.732Z,9.07
2022-11-24T03:04:44.677Z,10.57
2022-11-24T03:07:11.562Z,14.73
2022-11-24T03:09:38.442Z,12.05
2022-11-24T03:12:05.442Z,12.30
2022-11-24T03:14:32.673Z,11.65
2022-11-24T03:16:59.854Z,16.23
2022-11-24T03:19:26.679Z,10.18
2022-11-24T03:21:53.635Z,12.82
2022-11-24T03:24:20.660Z,11.52
2022-11-24T03:26:47.559Z,13.00
2022-11-24T03:29:14.404Z,12.50
2022-11-24T03:31:41.394Z,8.15
2022-11-24T03:34:08.383Z,11.93
2022-11-24T03:36:35.304Z,14.50
2022-11-24T03:39:02.196Z,10.77
2022-11-24T03:41:29.112Z,11.55
2022-11-24T03:43:55.935Z,18.35
2022-11-24T03:46:22.855Z,13.25
2022-11-24T03:48:49.704Z,14.10
2022-11-24T03:51:16.580Z,16.80
2022-11-24T03:53:43.496Z,18.52
2022-11-24T03:56:10.408Z,13.88
2022-11-24T03:58:37.253Z,16.75
2022-11-24T04:01:04.167Z,16.15
2022-11-24T04:03:30.980Z,18.00
2022-11-24T04:05:57.831Z,11.80
2022-11-24T04:08:24.689Z,14.57
2022-11-24T04:10:52.887Z,18.52
2022-11-24T04:13:21.610Z,14.77
2022-11-24T04:15:48.544Z,14.38
2022-11-24T04:18:15.369Z,15.45
2022-11-24T04:20:42.830Z,15.48
2022-11-24T04:23:09.823Z,14.30
2022-11-24T04:25:36.974Z,15.15
2022-11-24T04:28:03.937Z,17.45
2022-11-24T04:30:33.296Z,15.93
2022-11-24T04:33:03.103Z,12.32
2022-11-24T04:35:29.893Z,22.05
2022-11-24T04:37:56.755Z,13.57
2022-11-24T04:40:23.594Z,16.77
2022-11-24T04:42:55.020Z,13.98
2022-11-24T04:45:22.714Z,12.30
2022-11-24T04:47:49.567Z,15.00
2022-11-24T04:50:16.710Z,11.48
2022-11-24T04:52:43.622Z,13.93
2022-11-24T04:55:10.847Z,15.13
2022-11-24T04:57:37.674Z,13.32
2022-11-24T05:00:05.162Z,12.38
2022-11-24T05:02:32.077Z,11.20
2022-11-24T05:04:58.912Z,15.48
2022-11-24T05:07:25.764Z,14.00
2022-11-24T05:10:11.312Z,10.95
2022-11-24T05:12:39.461Z,12.98
2022-11-24T05:15:08.201Z,15.70
2022-11-24T05:17:36.828Z,17.73
2022-11-24T05:20:04.899Z,13.82
2022-11-24T05:22:31.894Z,20.48
2022-11-24T05:24:58.788Z,16.20
2022-11-24T05:27:25.668Z,14.60
2022-11-24T05:29:52.522Z,13.20
2022-11-24T05:32:19.362Z,15.55
2022-11-24T05:34:46.339Z,19.58
2022-11-24T05:37:13.244Z,17.40
2022-11-24T05:39:40.137Z,13.23
2022-11-24T05:42:25.975Z,12.70
2022-11-24T05:44:53.280Z,19.48
2022-11-24T05:47:20.100Z,17.15
2022-11-24T05:49:47.094Z,18.02
2022-11-24T05:52:14.029Z,18.23
2022-11-24T05:54:40.927Z,13.32
2022-11-24T05:57:07.799Z,18.45
2022-11-24T05:59:34.722Z,12.18
2022-11-24T06:02:01.841Z,24.33
2022-11-24T06:04:28.920Z,15.48
2022-11-24T06:06:56.167Z,17.33
2022-11-24T06:09:23.005Z,15.88
2022-11-24T06:11:50.063Z,17.30
2022-11-24T06:14:16.869Z,21.95
2022-11-24T06:16:43.944Z,24.55
2022-11-24T06:19:11.337Z,17.45
2022-11-24T06:21:38.235Z,15.90
2022-11-24T06:24:05.587Z,19.08
2022-11-24T06:26:32.489Z,20.55
2022-11-24T06:28:59.392Z,16.20
2022-11-24T06:31:26.582Z,14.90
2022-11-24T06:33:53.685Z,18.48
2022-11-24T06:36:20.593Z,15.95
2022-11-24T06:38:47.569Z,17.42
2022-11-24T06:41:15.563Z,22.20
2022-11-24T06:43:42.545Z,19.33
2022-11-24T06:46:09.635Z,18.33
2022-11-24T06:48:36.816Z,15.68
2022-11-24T06:51:06.098Z,19.90
2022-11-24T06:53:37.781Z,13.35
2022-11-24T06:56:07.465Z,22.05
2022-11-24T06:58:41.602Z,20.63
2022-11-24T07:01:08.774Z,17.95
2022-11-24T07:03:35.864Z,21.38
2022-11-24T07:06:02.887Z,19.35
2022-11-24T07:08:29.819Z,17.10
2022-11-24T07:10:56.882Z,19.08
2022-11-24T07:13:23.760Z,23.40
2022-11-24T07:15:50.602Z,22.58
2022-11-24T07:18:17.461Z,17.80
2022-11-24T07:20:44.366Z,23.50
2022-11-24T07:23:11.306Z,18.65
2022-11-24T07:25:38.186Z,14.98
2022-11-24T07:28:05.661Z,14.82
2022-11-24T07:30:32.666Z,15.93
2022-11-24T07:33:00.386Z,19.95
2022-11-24T07:35:27.595Z,22.73
2022-11-24T07:37:58.077Z,19.13
2022-11-24T07:40:26.066Z,21.65
2022-11-24T07:42:53.655Z,15.40
2022-11-24T07:45:20.522Z,23.90
2022-11-24T07:47:47.523Z,21.45
2022-11-24T07:50:14.666Z,18.55
2022-11-24T07:52:41.509Z,21.02
2022-11-24T07:55:09.048Z,21.25
2022-11-24T07:57:36.207Z,23.67
2022-11-24T08:00:04.469Z,21.98
2022-11-24T08:02:31.489Z,22.08
2022-11-24T08:04:58.637Z,20.55
2022-11-24T08:07:25.546Z,19.67
2022-11-24T08:09:52.571Z,19.40
2022-11-24T08:12:22.854Z,19.98
2022-11-24T08:14:50.392Z,23.08
2022-11-24T08:17:18.084Z,16.35
2022-11-24T08:19:45.200Z,20.23
2022-11-24T08:22:12.461Z,23.20
2022-11-24T08:24:46.097Z,23.58
2022-11-24T08:27:13.849Z,17.83
2022-11-24T08:29:40.866Z,22.00
2022-11-24T08:32:08.026Z,25.27
2022-11-24T08:34:35.330Z,23.13
2022-11-24T08:37:04.525Z,22.90
2022-11-24T08:39:31.813Z,21.85
2022-11-24T08:41:58.686Z,19.52
2022-11-24T08:44:25.760Z,20.90
2022-11-24T08:46:54.020Z,18.75
2022-11-24T08:49:21.742Z,22.70
2022-11-24T08:51:49.994Z,19.90
2022-11-24T08:54:18.869Z,22.45
2022-11-24T08:56:46.312Z,24.42
2022-11-24T08:59:14.129Z,20.17
2022-11-24T09:01:42.112Z,16.30
2022-11-24T09:04:09.324Z,18.20
2022-11-24T09:06:36.286Z,18.33
2022-11-24T09:09:03.576Z,22.95
2022-11-24T09:11:30.841Z,18.80
2022-11-24T09:13:57.890Z,21.85
2022-11-24T09:16:26.539Z,23.38
2022-11-24T09:19:04.431Z,19.08
2022-11-24T09:21:32.348Z,17.52
2022-11-24T09:23:59.322Z,18.13
2022-11-24T09:26:32.641Z,20.25
2022-11-24T09:28:59.912Z,27.38
2022-11-24T09:31:29.230Z,22.23
2022-11-24T09:33:56.569Z,22.42
2022-11-24T09:36:23.523Z,28.85
2022-11-24T09:38:50.529Z,22.33
2022-11-24T09:41:22.399Z,25.45
2022-11-24T09:44:04.332Z,24.80
2022-11-24T09:46:55.769Z,27.88
2022-11-24T09:49:31.098Z,24.55
2022-11-24T09:51:58.340Z,26.77
2022-11-24T09:54:29.017Z,22.55
2022-11-24T09:56:57.932Z,27.77
2022-11-24T09:59:25.182Z,30.60
2022-11-24T10:01:52.257Z,26.77
2022-11-24T10:04:22.577Z,27.40
2022-11-24T10:07:08.012Z,18.98
2022-11-24T10:10:03.360Z,23.63
2022-11-24T10:13:07.517Z,29.27
2022-11-24T10:16:12.451Z,31.85
2022-11-24T10:18:50.291Z,27.52
2022-11-24T10:21:45.080Z,19.38
2022-11-24T10:24:45.085Z,29.40
2022-11-24T10:27:20.070Z,32.08
2022-11-24T10:29:49.946Z,30.38
2022-11-24T10:32:29.561Z,31.88
2022-11-24T10:34:58.413Z,32.97
2022-11-24T10:37:37.196Z,32.03
2022-11-24T10:40:55.916Z,31.42
2022-11-24T10:43:17.608Z,35.03
2022-11-24T10:45:44.561Z,38.65
2022-11-24T10:48:25.845Z,31.42
2022-11-24T10:51:01.253Z,29.75
2022-11-24T10:53:31.447Z,31.58
2022-11-24T10:56:03.749Z,27.20
2022-11-24T10:58:38.654Z,32.00
2022-11-24T11:01:15.111Z,30.27
2022-11-24T11:03:57.556Z,28.90
2022-11-24T11:06:26.437Z,23.30
2022-11-24T11:09:19.884Z,26.10
2022-11-24T11:11:49.697Z,27.25
2022-11-24T11:14:30.671Z,23.40
2022-11-24T11:16:58.144Z,29.63
2022-11-24T11:19:54.134Z,26.65
2022-11-24T11:22:25.146Z,24.73
2022-11-24T11:25:12.050Z,24.27
2022-11-24T11:27:39.646Z,28.38
2022-11-24T11:36:13.375Z,28.92
2022-11-24T11:38:40.261Z,25.30
2022-11-24T11:41:08.534Z,24.98
2022-11-24T11:43:36.145Z,25.67
2022-11-24T11:46:11.799Z,23.55
2022-11-24T11:48:43.721Z,22.02
2022-11-24T11:51:23.441Z,26.13
2022-11-24T11:54:10.159Z,21.95
2022-11-24T11:56:45.236Z,25.75
2022-11-24T11:59:27.129Z,19.58
2022-11-24T12:02:15.442Z,25.08
2022-11-24T12:04:53.264Z,24.02
2022-11-24T12:07:31.950Z,25.40
2022-11-24T12:10:23.287Z,19.58
2022-11-24T12:13:08.826Z,19.77
2022-11-24T12:15:57.266Z,26.20
2022-11-24T12:18:59.980Z,19.45
2022-11-24T12:21:53.186Z,23.00
2022-11-24T12:24:25.973Z,21.35
2022-11-24T12:26:57.310Z,21.45
2022-11-24T12:29:39.313Z,21.80
2022-11-24T12:32:33.193Z,20.92
2022-11-24T12:35:34.400Z,17.95
2022-11-24T12:38:07.061Z,26.15
2022-11-24T12:40:51.249Z,23.13
2022-11-24T12:43:51.267Z,22.98
2022-11-24T12:46:43.114Z,24.98
2022-11-24T12:49:33.638Z,22.23
2022-11-24T12:52:08.466Z,19.10
2022-11-24T12:54:39.052Z,24.40
2022-11-24T12:57:10.302Z,23.60
2022-11-24T12:59:43.915Z,20.88
2022-11-24T13:02:16.949Z,21.35
2022-11-24T13:05:03.258Z,21.80
2022-11-24T13:07:46.282Z,19.20
2022-11-24T13:10:46.943Z,19.52
2022-11-24T13:13:13.364Z,20.30
2022-11-24T13:19:02.859Z,23.95
2022-11-24T13:21:35.903Z,20.35
2022-11-24T13:24:05.470Z,16.88
2022-11-24T13:26:41.500Z,18.33
2022-11-24T13:29:27.648Z,20.10
2022-11-24T13:31:55.400Z,26.35
2022-11-24T13:34:55.052Z,24.67
2022-11-24T13:37:33.721Z,22.67
2022-11-24T13:40:23.076Z,22.60
2022-11-24T13:42:56.441Z,18.77
2022-11-24T13:45:43.158Z,18.13
2022-11-24T13:48:19.168Z,24.15
2022-11-24T13:50:56.065Z,22.58
2022-11-24T13:53:33.106Z,19.38
2022-11-24T13:56:13.632Z,23.67
2022-11-24T13:58:56.927Z,18.33
2022-11-24T14:01:23.863Z,19.13
2022-11-24T14:06:52.544Z,20.08
2022-11-24T14:09:32.085Z,18.38
2022-11-24T14:12:10.193Z,23.90
2022-11-24T14:14:37.560Z,25.02
2022-11-24T14:17:15.690Z,21.92
2022-11-24T14:19:43.518Z,20.83
2022-11-24T14:22:26.525Z,23.38
2022-11-24T14:24:55.421Z,18.90
2022-11-24T14:27:29.664Z,19.48
2022-11-24T14:29:58.622Z,18.60
2022-11-24T14:32:25.516Z,18.70
2022-11-24T14:34:54.211Z,27.15
2022-11-24T14:37:21.681Z,20.52
2022-11-24T14:39:49.555Z,22.92
2022-11-24T14:42:25.979Z,18.80
2022-11-24T14:44:56.536Z,23.45
2022-11-24T14:47:36.127Z,23.00
2022-11-24T14:50:07.862Z,23.10
2022-11-24T14:52:34.881Z,19.38
2022-11-24T14:55:21.323Z,18.08
2022-11-24T14:57:48.856Z,22.67
2022-11-24T15:00:25.404Z,17.40
2022-11-24T15:02:56.025Z,23.38
2022-11-24T15:05:24.053Z,23.90
2022-11-24T15:07:52.980Z,21.23
2022-11-24T15:10:21.530Z,29.73
2022-11-24T15:12:53.942Z,17.50
2022-11-24T15:17:56.360Z,19.40
2022-11-24T15:20:27.809Z,18.30
2022-11-24T15:23:27.551Z,26.65
2022-11-24T15:25:55.604Z,19.60
2022-11-24T15:28:28.795Z,16.92
2022-11-24T15:30:59.381Z,20.58
2022-11-24T15:33:26.735Z,23.50
2022-11-24T15:35:53.580Z,21.83
2022-11-24T15:38:20.863Z,17.70
2022-11-24T15:40:49.533Z,18.60
2022-11-24T15:43:31.557Z,16.90
2022-11-24T15:45:58.983Z,16.25
2022-11-24T15:48:25.811Z,17.77
2022-11-24T15:50:53.331Z,20.27
2022-11-24T15:53:22.851Z,16.10
2022-11-24T15:55:50.360Z,18.30
2022-11-24T15:58:17.689Z,19.45
2022-11-24T16:00:44.928Z,17.23
2022-11-24T16:03:44.433Z,19.27
2022-11-24T16:05:58.895Z,17.00
2022-11-24T16:08:25.831Z,18.23
2022-11-24T16:10:52.718Z,17.10
2022-11-24T16:13:19.657Z,16.13
2022-11-24T16:15:46.797Z,16.35
2022-11-24T16:18:15.589Z,15.98
2022-11-24T16:20:42.585Z,11.88
2022-11-24T16:23:09.509Z,15.43
2022-11-24T16:25:36.606Z,12.70
2022-11-24T16:28:03.693Z,12.60
2022-11-24T16:30:30.717Z,9.35
2022-11-24T16:32:58.100Z,10.15
2022-11-24T16:35:24.883Z,6.68
2022-11-24T16:37:51.737Z,6.88
2022-11-24T16:40:18.952Z,8.25
2022-11-24T16:42:45.814Z,6.47
2022-11-24T16:45:13.072Z,6.25
2022-11-24T16:47:41.110Z,7.75
2022-11-24T16:50:09.328Z,10.05
2022-11-24T16:52:36.433Z,6.85
2022-11-24T16:55:04.105Z,4.63
2022-11-24T16:57:31.056Z,5.57
2022-11-24T16:59:58.162Z,5.93
2022-11-24T17:02:25.237Z,6.07
2022-11-24T17:04:52.921Z,6.00
2022-11-24T17:07:20.618Z,6.90
2022-11-24T17:09:48.464Z,6.03
2022-11-24T17:12:15.441Z,6.03
2022-11-24T17:14:42.365Z,5.88
2022-11-24T17:17:09.289Z,8.75
2022-11-24T17:19:36.293Z,8.40
2022-11-24T17:22:03.212Z,10.27
2022-11-24T17:24:32.318Z,9.25
2022-11-24T17:26:59.356Z,7.88
2022-11-24T17:29:26.251Z,9.82
2022-11-24T17:31:53.211Z,12.45
2022-11-24T17:34:20.514Z,9.55
2022-11-24T17:36:47.501Z,10.40
2022-11-24T17:39:14.459Z,13.68
2022-11-24T17:41:41.454Z,9.15
2022-11-24T17:44:12.702Z,9.15
2022-11-24T17:46:39.931Z,15.83
2022-11-24T17:49:13.338Z,13.25
2022-11-24T17:51:41.317Z,13.25
2022-11-24T17:54:44.884Z,15.07
2022-11-24T17:56:55.114Z,12.75
2022-11-24T17:59:21.982Z,16.52
2022-11-24T18:01:48.870Z,15.55
2022-11-24T18:04:15.839Z,14.13
2022-11-24T18:06:42.733Z,17.33
2022-11-24T18:09:09.685Z,13.82
2022-11-24T18:11:36.740Z,22.70
2022-11-24T18:14:03.924Z,15.05
2022-11-24T18:16:31.986Z,21.70
2022-11-24T18:19:08.297Z,20.02
2022-11-24T18:21:40.144Z,18.30
2022-11-24T18:24:08.391Z,20.48
2022-11-24T18:26:35.355Z,20.20
2022-11-24T18:29:02.332Z,21.05
2022-11-24T18:31:31.069Z,20.88
2022-11-24T18:33:59.124Z,23.45
2022-11-24T18:36:30.350Z,24.35
2022-11-24T18:39:07.105Z,16.02
2022-11-24T18:41:34.259Z,21.45
2022-11-24T18:44:07.871Z,20.15
2022-11-24T18:46:35.110Z,20.85
2022-11-24T18:49:02.114Z,22.52
2022-11-24T18:51:29.178Z,18.80
2022-11-24T18:53:58.244Z,17.02
2022-11-24T18:56:25.486Z,18.30
2022-11-24T18:58:53.434Z,19.00
2022-11-24T19:01:25.492Z,20.00
2022-11-24T19:03:57.350Z,18.00
2022-11-24T19:06:32.111Z,21.70
2022-11-24T19:09:04.314Z,15.38
2022-11-24T19:11:33.678Z,19.95
2022-11-24T19:14:00.801Z,17.23
2022-11-24T19:16:28.256Z,21.88
2022-11-24T19:19:02.528Z,23.05
2022-11-24T19:21:34.083Z,26.10
2022-11-24T19:24:05.404Z,20.30
2022-11-24T19:26:35.202Z,20.58
2022-11-24T19:29:03.124Z,23.35
2022-11-24T19:31:30.130Z,18.23
2022-11-24T19:33:58.756Z,23.67
2022-11-24T19:36:26.270Z,19.88
2022-11-24T19:38:54.845Z,22.25
2022-11-24T19:41:23.410Z,23.30
2022-11-24T19:43:53.050Z,20.15
2022-11-24T19:46:20.191Z,22.90
2022-11-24T19:48:50.158Z,25.20
2022-11-24T19:51:25.462Z,23.33
2022-11-24T19:53:52.948Z,22.60
2022-11-24T19:56:24.358Z,20.20
2022-11-24T19:58:51.521Z,28.85
2022-11-24T20:01:25.162Z,19.75
2022-11-24T20:03:56.922Z,26.92
2022-11-24T20:06:23.707Z,21.98
2022-11-24T20:08:52.633Z,26.05
2022-11-24T20:11:20.500Z,22.08
2022-11-24T20:13:47.509Z,26.05
2022-11-24T20:16:26.233Z,23.98
2022-11-24T20:18:54.343Z,23.85
2022-11-24T20:21:22.491Z,20.77
2022-11-24T20:23:54.785Z,22.05
2022-11-24T20:26:23.135Z,22.98
2022-11-24T20:28:50.892Z,25.40
2022-11-24T20:31:28.408Z,24.40
2022-11-24T20:33:55.573Z,21.10
2022-11-24T20:36:24.298Z,25.00
2022-11-24T20:38:51.606Z,24.10
2022-11-24T20:41:33.406Z,22.45
2022-11-24T20:44:01.700Z,24.25
2022-11-24T20:46:30.151Z,24.35
2022-11-24T20:48:57.051Z,21.63
2022-11-24T20:51:25.559Z,19.23
2022-11-24T20:53:54.939Z,23.85
2022-11-24T20:56:23.587Z,22.25
2022-11-24T20:58:50.801Z,22.58
2022-11-24T21:01:22.088Z,26.05
2022-11-24T21:03:52.708Z,24.27
2022-11-24T21:06:19.671Z,19.13
2022-11-24T21:08:46.743Z,24.98
2022-11-24T21:11:14.007Z,26.65
2022-11-24T21:13:42.270Z,21.88
2022-11-24T21:16:16.307Z,22.05
2022-11-24T21:18:44.494Z,21.23
2022-11-24T21:21:12.119Z,21.48
2022-11-24T21:23:38.996Z,18.92
2022-11-24T21:26:11.498Z,20.48
2022-11-24T21:28:42.293Z,26.30
2022-11-24T21:31:11.357Z,19.27
2022-11-24T21:33:42.329Z,19.05
2022-11-24T21:36:09.293Z,26.55
2022-11-24T21:38:36.193Z,26.23
2022-11-24T21:41:06.996Z,31.15
2022-11-24T21:43:34.431Z,16.58
2022-11-24T21:46:02.467Z,21.50
2022-11-24T21:48:30.113Z,19.02
2022-11-24T21:51:01.204Z,21.52
2022-11-24T21:53:30.625Z,19.40
2022-11-24T21:55:58.373Z,16.92
2022-11-24T21:58:25.561Z,14.38
2022-11-24T22:00:52.518Z,18.10
2022-11-24T22:03:19.706Z,16.73
2022-11-24T22:05:59.800Z,25.02
2022-11-24T22:08:27.538Z,17.90
2022-11-24T22:10:54.573Z,28.45
2022-11-24T22:13:21.542Z,18.48
2022-11-24T22:15:48.437Z,18.35
2022-11-24T22:18:15.350Z,17.38
2022-11-24T22:20:42.243Z,18.67
2022-11-24T22:23:09.372Z,20.13
2022-11-24T22:25:36.183Z,20.63
2022-11-24T22:28:03.044Z,21.33
2022-11-24T22:30:29.834Z,21.48
2022-11-24T22:32:56.914Z,15.60
2022-11-24T22:35:23.775Z,18.83
2022-11-24T22:37:50.673Z,20.85
2022-11-24T22:40:17.649Z,20.77
2022-11-24T22:42:45.639Z,18.30
2022-11-24T22:45:12.639Z,20.85
2022-11-24T22:47:39.557Z,19.30
2022-11-24T22:50:07.167Z,15.35
2022-11-24T22:52:34.276Z,20.20
2022-11-24T22:55:01.156Z,18.23
2022-11-24T22:57:27.945Z,22.50
2022-11-24T22:59:54.771Z,20.42
2022-11-24T23:02:21.685Z,22.13
2022-11-24T23:04:48.527Z,18.60
2022-11-24T23:07:15.724Z,14.35
2022-11-24T23:09:42.953Z,19.38
2022-11-24T23:12:09.916Z,20.55
2022-11-24T23:14:36.857Z,15.25
2022-11-24T23:17:03.996Z,16.80
2022-11-24T23:19:31.063Z,20.52
2022-11-24T23:21:58.004Z,23.15
2022-11-24T23:24:24.860Z,20.65
2022-11-24T23:26:51.918Z,22.58
2022-11-24T23:29:18.853Z,23.00
2022-11-24T23:31:45.988Z,21.67
2022-11-24T23:34:12.949Z,18.55
2022-11-24T23:36:40.014Z,20.95
2022-11-24T23:39:14.347Z,21.55
2022-11-24T23:41:41.269Z,16.95
2022-11-24T23:44:08.229Z,23.10
2022-11-24T23:46:35.151Z,21.92
2022-11-24T23:49:05.447Z,17.77
2022-11-24T23:51:32.980Z,19.02
2022-11-24T23:54:00.339Z,14.63
2022-11-24T23:56:29.153Z,20.60
2022-11-24T23:58:58.876Z,19.90
